sensor_id;sensor_type;location;lat;lon;timestamp;P1;durP1;ratioP1;P2;durP2;ratioP2
39924;SDS011;25592;49.986;11.618;2022-09-13T00:02:29;6.50;;;4.60;;
39924;SDS011;25592;49.986;11.618;2022-09-13T00:05:14;6.40;;;3.90;;
39924;SDS011;25592;49.986;11.618;2022-09-13T00:07:59;6.63;;;4.28;;
39924;SDS011;25592;49.986;11.618;2022-09-13T00:10:45;12.88;;;4.38;;
39924;SDS011;25592;49.986;11.618;2022-09-13T00:13:31;6.18;;;3.75;;
39924;SDS011;25592;49.986;11.618;2022-09-13T00:16:17;6.15;;;3.85;;
39924;SDS011;25592;49.986;11.618;2022-09-13T00:19:03;7.45;;;4.53;;
39924;SDS011;25592;49.986;11.618;2022-09-13T00:21:48;5.93;;;4.05;;
39924;SDS011;25592;49.986;11.618;2022-09-13T00:24:34;7.32;;;4.20;;
39924;SDS011;25592;49.986;11.618;2022-09-13T00:27:21;6.90;;;4.07;;
39924;SDS011;25592;49.986;11.618;2022-09-13T00:30:06;5.63;;;4.38;;
39924;SDS011;25592;49.986;11.618;2022-09-13T00:32:52;6.43;;;4.30;;
39924;SDS011;25592;49.986;11.618;2022-09-13T00:35:37;6.80;;;4.32;;
39924;SDS011;25592;49.986;11.618;2022-09-13T00:38:23;7.90;;;4.20;;
39924;SDS011;25592;49.986;11.618;2022-09-13T00:41:10;7.47;;;4.25;;
39924;SDS011;25592;49.986;11.618;2022-09-13T00:43:58;7.47;;;3.97;;
39924;SDS011;25592;49.986;11.618;2022-09-13T00:46:46;6.93;;;4.38;;
39924;SDS011;25592;49.986;11.618;2022-09-13T00:49:35;7.78;;;4.47;;
39924;SDS011;25592;49.986;11.618;2022-09-13T00:52:24;7.97;;;5.35;;
39924;SDS011;25592;49.986;11.618;2022-09-13T00:55:18;8.57;;;3.90;;
39924;SDS011;25592;49.986;11.618;2022-09-13T00:58:16;6.28;;;4.30;;
39924;SDS011;25592;49.986;11.618;2022-09-13T01:01:07;7.00;;;4.70;;
39924;SDS011;25592;49.986;11.618;2022-09-13T01:03:56;6.80;;;4.50;;
39924;SDS011;25592;49.986;11.618;2022-09-13T01:06:42;7.32;;;4.95;;
39924;SDS011;25592;49.986;11.618;2022-09-13T01:09:28;8.57;;;4.80;;
39924;SDS011;25592;49.986;11.618;2022-09-13T01:12:21;7.53;;;4.72;;
39924;SDS011;25592;49.986;11.618;2022-09-13T01:15:10;7.13;;;4.32;;
39924;SDS011;25592;49.986;11.618;2022-09-13T01:17:55;5.53;;;3.85;;
39924;SDS011;25592;49.986;11.618;2022-09-13T01:27:10;8.35;;;4.35;;
39924;SDS011;25592;49.986;11.618;2022-09-13T01:36:40;9.38;;;4.60;;
39924;SDS011;25592;49.986;11.618;2022-09-13T01:39:54;6.65;;;4.55;;
39924;SDS011;25592;49.986;11.618;2022-09-13T01:46:03;7.53;;;4.28;;
39924;SDS011;25592;49.986;11.618;2022-09-13T01:52:21;6.95;;;4.72;;
39924;SDS011;25592;49.986;11.618;2022-09-13T01:55:27;7.47;;;4.72;;
39924;SDS011;25592;49.986;11.618;2022-09-13T01:58:34;10.07;;;4.68;;
39924;SDS011;25592;49.986;11.618;2022-09-13T02:01:28;11.18;;;4.60;;
39924;SDS011;25592;49.986;11.618;2022-09-13T02:04:21;6.63;;;4.68;;
39924;SDS011;25592;49.986;11.618;2022-09-13T02:07:18;9.48;;;5.60;;
39924;SDS011;25592;49.986;11.618;2022-09-13T02:10:20;7.07;;;4.22;;
39924;SDS011;25592;49.986;11.618;2022-09-13T02:13:12;8.00;;;5.25;;
39924;SDS011;25592;49.986;11.618;2022-09-13T02:16:05;7.63;;;4.80;;
39924;SDS011;25592;49.986;11.618;2022-09-13T02:18:56;9.85;;;5.05;;
39924;SDS011;25592;49.986;11.618;2022-09-13T02:21:48;9.73;;;4.03;;
39924;SDS011;25592;49.986;11.618;2022-09-13T02:27:27;9.73;;;4.53;;
39924;SDS011;25592;49.986;11.618;2022-09-13T02:30:15;8.25;;;4.55;;
39924;SDS011;25592;49.986;11.618;2022-09-13T02:33:44;10.95;;;4.60;;
39924;SDS011;25592;49.986;11.618;2022-09-13T02:36:14;8.88;;;4.53;;
39924;SDS011;25592;49.986;11.618;2022-09-13T02:39:10;7.65;;;4.30;;
39924;SDS011;25592;49.986;11.618;2022-09-13T02:45:16;10.75;;;4.25;;
39924;SDS011;25592;49.986;11.618;2022-09-13T02:48:03;8.30;;;4.78;;
39924;SDS011;25592;49.986;11.618;2022-09-13T02:50:58;8.73;;;4.60;;
39924;SDS011;25592;49.986;11.618;2022-09-13T02:53:59;7.35;;;4.57;;
39924;SDS011;25592;49.986;11.618;2022-09-13T02:56:56;7.78;;;4.50;;
39924;SDS011;25592;49.986;11.618;2022-09-13T02:59:48;7.75;;;4.97;;
39924;SDS011;25592;49.986;11.618;2022-09-13T03:02:33;7.47;;;4.88;;
39924;SDS011;25592;49.986;11.618;2022-09-13T03:05:21;10.15;;;4.82;;
39924;SDS011;25592;49.986;11.618;2022-09-13T03:08:08;11.38;;;4.70;;
39924;SDS011;25592;49.986;11.618;2022-09-13T03:11:06;9.30;;;4.75;;
39924;SDS011;25592;49.986;11.618;2022-09-13T03:16:47;8.52;;;3.95;;
39924;SDS011;25592;49.986;11.618;2022-09-13T03:26:22;8.98;;;5.22;;
39924;SDS011;25592;49.986;11.618;2022-09-13T03:29:34;7.10;;;4.63;;
39924;SDS011;25592;49.986;11.618;2022-09-13T03:32:33;8.15;;;4.80;;
39924;SDS011;25592;49.986;11.618;2022-09-13T03:38:20;9.60;;;5.25;;
39924;SDS011;25592;49.986;11.618;2022-09-13T03:41:17;9.02;;;5.18;;
39924;SDS011;25592;49.986;11.618;2022-09-13T03:44:09;10.13;;;4.55;;
39924;SDS011;25592;49.986;11.618;2022-09-13T03:46:58;8.40;;;4.82;;
39924;SDS011;25592;49.986;11.618;2022-09-13T03:49:46;6.53;;;4.50;;
39924;SDS011;25592;49.986;11.618;2022-09-13T03:52:32;8.88;;;5.22;;
39924;SDS011;25592;49.986;11.618;2022-09-13T03:55:21;7.47;;;4.80;;
39924;SDS011;25592;49.986;11.618;2022-09-13T03:58:11;5.90;;;4.47;;
39924;SDS011;25592;49.986;11.618;2022-09-13T04:00:59;7.13;;;4.47;;
39924;SDS011;25592;49.986;11.618;2022-09-13T04:03:44;8.07;;;4.93;;
39924;SDS011;25592;49.986;11.618;2022-09-13T04:06:29;7.07;;;5.07;;
39924;SDS011;25592;49.986;11.618;2022-09-13T04:09:15;12.52;;;5.35;;
39924;SDS011;25592;49.986;11.618;2022-09-13T04:12:00;7.90;;;4.47;;
39924;SDS011;25592;49.986;11.618;2022-09-13T04:14:46;7.90;;;4.80;;
39924;SDS011;25592;49.986;11.618;2022-09-13T04:17:32;7.82;;;5.10;;
39924;SDS011;25592;49.986;11.618;2022-09-13T04:20:17;7.13;;;4.95;;
39924;SDS011;25592;49.986;11.618;2022-09-13T04:23:04;7.68;;;4.93;;
39924;SDS011;25592;49.986;11.618;2022-09-13T04:25:49;11.02;;;5.68;;
39924;SDS011;25592;49.986;11.618;2022-09-13T04:28:37;9.15;;;4.70;;
39924;SDS011;25592;49.986;11.618;2022-09-13T04:31:23;7.65;;;5.07;;
39924;SDS011;25592;49.986;11.618;2022-09-13T04:34:08;7.20;;;4.57;;
39924;SDS011;25592;49.986;11.618;2022-09-13T04:36:53;7.07;;;4.82;;
39924;SDS011;25592;49.986;11.618;2022-09-13T04:39:39;9.63;;;5.43;;
39924;SDS011;25592;49.986;11.618;2022-09-13T04:42:24;7.60;;;5.10;;
39924;SDS011;25592;49.986;11.618;2022-09-13T04:45:10;6.10;;;3.30;;
39924;SDS011;25592;49.986;11.618;2022-09-13T04:47:55;6.60;;;4.10;;
39924;SDS011;25592;49.986;11.618;2022-09-13T04:50:40;6.63;;;4.05;;
39924;SDS011;25592;49.986;11.618;2022-09-13T04:53:26;6.03;;;4.25;;
39924;SDS011;25592;49.986;11.618;2022-09-13T04:56:11;9.05;;;4.82;;
39924;SDS011;25592;49.986;11.618;2022-09-13T04:58:59;11.25;;;4.40;;
39924;SDS011;25592;49.986;11.618;2022-09-13T05:01:44;7.40;;;4.20;;
39924;SDS011;25592;49.986;11.618;2022-09-13T05:04:29;5.43;;;3.50;;
39924;SDS011;25592;49.986;11.618;2022-09-13T05:07:14;5.80;;;4.10;;
39924;SDS011;25592;49.986;11.618;2022-09-13T05:10:00;6.13;;;4.15;;
39924;SDS011;25592;49.986;11.618;2022-09-13T05:12:45;6.78;;;4.25;;
39924;SDS011;25592;49.986;11.618;2022-09-13T05:15:31;6.30;;;3.88;;
39924;SDS011;25592;49.986;11.618;2022-09-13T05:18:16;9.25;;;4.30;;
39924;SDS011;25592;49.986;11.618;2022-09-13T05:21:02;8.27;;;4.78;;
39924;SDS011;25592;49.986;11.618;2022-09-13T05:23:49;7.05;;;4.20;;
39924;SDS011;25592;49.986;11.618;2022-09-13T05:26:35;6.97;;;4.82;;
39924;SDS011;25592;49.986;11.618;2022-09-13T05:29:20;6.15;;;3.78;;
39924;SDS011;25592;49.986;11.618;2022-09-13T05:32:05;7.65;;;4.28;;
39924;SDS011;25592;49.986;11.618;2022-09-13T05:34:51;7.00;;;4.45;;
39924;SDS011;25592;49.986;11.618;2022-09-13T05:37:36;8.23;;;5.07;;
39924;SDS011;25592;49.986;11.618;2022-09-13T05:40:22;8.10;;;4.88;;
39924;SDS011;25592;49.986;11.618;2022-09-13T05:43:07;9.70;;;4.65;;
39924;SDS011;25592;49.986;11.618;2022-09-13T05:46:26;6.50;;;4.60;;
39924;SDS011;25592;49.986;11.618;2022-09-13T05:49:05;6.13;;;4.32;;
39924;SDS011;25592;49.986;11.618;2022-09-13T05:51:50;6.60;;;4.35;;
39924;SDS011;25592;49.986;11.618;2022-09-13T05:54:35;6.78;;;4.22;;
39924;SDS011;25592;49.986;11.618;2022-09-13T05:57:21;6.68;;;4.28;;
39924;SDS011;25592;49.986;11.618;2022-09-13T06:00:07;7.88;;;4.50;;
39924;SDS011;25592;49.986;11.618;2022-09-13T06:02:54;5.85;;;4.18;;
39924;SDS011;25592;49.986;11.618;2022-09-13T06:05:40;5.97;;;4.22;;
39924;SDS011;25592;49.986;11.618;2022-09-13T06:08:26;7.97;;;5.20;;
39924;SDS011;25592;49.986;11.618;2022-09-13T06:11:13;7.53;;;5.20;;
39924;SDS011;25592;49.986;11.618;2022-09-13T06:13:59;12.43;;;5.60;;
39924;SDS011;25592;49.986;11.618;2022-09-13T06:16:44;7.90;;;5.32;;
39924;SDS011;25592;49.986;11.618;2022-09-13T06:19:30;8.20;;;5.38;;
39924;SDS011;25592;49.986;11.618;2022-09-13T06:22:15;8.55;;;5.47;;
39924;SDS011;25592;49.986;11.618;2022-09-13T06:25:00;8.68;;;5.80;;
39924;SDS011;25592;49.986;11.618;2022-09-13T06:27:45;8.90;;;5.63;;
39924;SDS011;25592;49.986;11.618;2022-09-13T06:30:34;8.23;;;5.43;;
39924;SDS011;25592;49.986;11.618;2022-09-13T06:33:19;10.50;;;7.10;;
39924;SDS011;25592;49.986;11.618;2022-09-13T06:36:09;10.45;;;5.65;;
39924;SDS011;25592;49.986;11.618;2022-09-13T06:38:58;9.00;;;5.90;;
39924;SDS011;25592;49.986;11.618;2022-09-13T06:41:45;7.72;;;4.78;;
39924;SDS011;25592;49.986;11.618;2022-09-13T06:44:30;9.32;;;5.80;;
39924;SDS011;25592;49.986;11.618;2022-09-13T06:47:15;9.95;;;6.40;;
39924;SDS011;25592;49.986;11.618;2022-09-13T06:50:01;7.28;;;5.25;;
39924;SDS011;25592;49.986;11.618;2022-09-13T06:52:46;13.27;;;6.57;;
39924;SDS011;25592;49.986;11.618;2022-09-13T06:55:32;9.77;;;5.57;;
39924;SDS011;25592;49.986;11.618;2022-09-13T06:58:17;9.68;;;6.78;;
39924;SDS011;25592;49.986;11.618;2022-09-13T07:01:04;11.57;;;6.10;;
39924;SDS011;25592;49.986;11.618;2022-09-13T07:04:11;8.05;;;5.97;;
39924;SDS011;25592;49.986;11.618;2022-09-13T07:06:58;9.18;;;6.10;;
39924;SDS011;25592;49.986;11.618;2022-09-13T07:09:44;8.75;;;6.50;;
39924;SDS011;25592;49.986;11.618;2022-09-13T07:12:29;9.18;;;6.03;;
39924;SDS011;25592;49.986;11.618;2022-09-13T07:15:14;11.35;;;6.25;;
39924;SDS011;25592;49.986;11.618;2022-09-13T07:18:00;9.90;;;6.80;;
39924;SDS011;25592;49.986;11.618;2022-09-13T07:20:45;13.10;;;6.35;;
39924;SDS011;25592;49.986;11.618;2022-09-13T07:23:31;10.02;;;6.90;;
39924;SDS011;25592;49.986;11.618;2022-09-13T07:26:17;15.52;;;7.63;;
39924;SDS011;25592;49.986;11.618;2022-09-13T07:29:07;10.85;;;6.55;;
39924;SDS011;25592;49.986;11.618;2022-09-13T07:31:56;9.07;;;6.32;;
39924;SDS011;25592;49.986;11.618;2022-09-13T07:34:42;13.57;;;7.05;;
39924;SDS011;25592;49.986;11.618;2022-09-13T07:37:27;11.35;;;6.95;;
39924;SDS011;25592;49.986;11.618;2022-09-13T07:40:13;11.13;;;7.10;;
39924;SDS011;25592;49.986;11.618;2022-09-13T07:42:58;10.73;;;6.55;;
39924;SDS011;25592;49.986;11.618;2022-09-13T07:45:43;10.73;;;6.75;;
39924;SDS011;25592;49.986;11.618;2022-09-13T07:48:29;8.63;;;5.95;;
39924;SDS011;25592;49.986;11.618;2022-09-13T07:51:19;10.40;;;6.45;;
39924;SDS011;25592;49.986;11.618;2022-09-13T07:54:10;9.60;;;5.90;;
39924;SDS011;25592;49.986;11.618;2022-09-13T07:56:57;12.18;;;6.50;;
39924;SDS011;25592;49.986;11.618;2022-09-13T07:59:42;9.07;;;6.32;;
39924;SDS011;25592;49.986;11.618;2022-09-13T08:02:27;9.27;;;6.15;;
39924;SDS011;25592;49.986;11.618;2022-09-13T08:05:13;10.00;;;6.95;;
39924;SDS011;25592;49.986;11.618;2022-09-13T08:07:58;8.55;;;5.95;;
39924;SDS011;25592;49.986;11.618;2022-09-13T08:10:43;9.30;;;6.43;;
39924;SDS011;25592;49.986;11.618;2022-09-13T08:13:33;8.23;;;6.15;;
39924;SDS011;25592;49.986;11.618;2022-09-13T08:16:20;11.65;;;6.90;;
39924;SDS011;25592;49.986;11.618;2022-09-13T08:19:07;9.90;;;6.28;;
39924;SDS011;25592;49.986;11.618;2022-09-13T08:21:54;10.07;;;6.43;;
39924;SDS011;25592;49.986;11.618;2022-09-13T08:24:39;10.73;;;7.00;;
39924;SDS011;25592;49.986;11.618;2022-09-13T08:27:24;10.25;;;6.82;;
39924;SDS011;25592;49.986;11.618;2022-09-13T08:30:11;8.55;;;6.20;;
39924;SDS011;25592;49.986;11.618;2022-09-13T08:33:00;8.23;;;6.15;;
39924;SDS011;25592;49.986;11.618;2022-09-13T08:35:50;9.35;;;5.85;;
39924;SDS011;25592;49.986;11.618;2022-09-13T08:38:36;12.45;;;5.90;;
39924;SDS011;25592;49.986;11.618;2022-09-13T08:47:31;10.25;;;6.00;;
39924;SDS011;25592;49.986;11.618;2022-09-13T08:50:29;7.55;;;5.25;;
39924;SDS011;25592;49.986;11.618;2022-09-13T08:53:27;7.30;;;5.15;;
39924;SDS011;25592;49.986;11.618;2022-09-13T08:56:19;14.82;;;5.60;;
39924;SDS011;25592;49.986;11.618;2022-09-13T09:02:48;8.05;;;5.10;;
39924;SDS011;25592;49.986;11.618;2022-09-13T09:05:42;7.45;;;4.55;;
39924;SDS011;25592;49.986;11.618;2022-09-13T09:08:37;10.05;;;5.22;;
39924;SDS011;25592;49.986;11.618;2022-09-13T09:11:34;6.00;;;4.13;;
39924;SDS011;25592;49.986;11.618;2022-09-13T09:14:29;10.13;;;5.00;;
39924;SDS011;25592;49.986;11.618;2022-09-13T09:17:21;8.38;;;4.20;;
39924;SDS011;25592;49.986;11.618;2022-09-13T09:20:27;6.68;;;4.47;;
39924;SDS011;25592;49.986;11.618;2022-09-13T09:23:31;5.97;;;4.25;;
39924;SDS011;25592;49.986;11.618;2022-09-13T09:26:24;6.38;;;4.68;;
39924;SDS011;25592;49.986;11.618;2022-09-13T09:29:16;7.63;;;4.25;;
39924;SDS011;25592;49.986;11.618;2022-09-13T09:32:14;7.28;;;5.03;;
39924;SDS011;25592;49.986;11.618;2022-09-13T09:38:37;7.75;;;5.40;;
39924;SDS011;25592;49.986;11.618;2022-09-13T09:41:29;6.35;;;4.43;;
39924;SDS011;25592;49.986;11.618;2022-09-13T09:44:17;7.93;;;4.90;;
39924;SDS011;25592;49.986;11.618;2022-09-13T09:47:09;7.22;;;5.57;;
39924;SDS011;25592;49.986;11.618;2022-09-13T09:50:03;6.13;;;4.65;;
39924;SDS011;25592;49.986;11.618;2022-09-13T09:55:52;6.30;;;4.75;;
39924;SDS011;25592;49.986;11.618;2022-09-13T09:59:23;7.40;;;4.68;;
39924;SDS011;25592;49.986;11.618;2022-09-13T10:02:13;6.60;;;4.93;;
39924;SDS011;25592;49.986;11.618;2022-09-13T10:05:02;8.20;;;4.65;;
39924;SDS011;25592;49.986;11.618;2022-09-13T10:07:51;6.43;;;4.88;;
39924;SDS011;25592;49.986;11.618;2022-09-13T10:10:42;7.05;;;4.35;;
39924;SDS011;25592;49.986;11.618;2022-09-13T10:13:29;6.45;;;4.35;;
39924;SDS011;25592;49.986;11.618;2022-09-13T10:16:23;8.52;;;5.03;;
39924;SDS011;25592;49.986;11.618;2022-09-13T10:19:20;6.43;;;4.15;;
39924;SDS011;25592;49.986;11.618;2022-09-13T10:22:10;6.32;;;4.50;;
39924;SDS011;25592;49.986;11.618;2022-09-13T10:25:12;5.70;;;3.80;;
39924;SDS011;25592;49.986;11.618;2022-09-13T10:28:12;7.30;;;3.83;;
39924;SDS011;25592;49.986;11.618;2022-09-13T10:31:04;5.72;;;4.18;;
39924;SDS011;25592;49.986;11.618;2022-09-13T10:34:00;5.95;;;4.13;;
39924;SDS011;25592;49.986;11.618;2022-09-13T10:36:56;5.85;;;4.03;;
39924;SDS011;25592;49.986;11.618;2022-09-13T10:39:52;5.95;;;4.07;;
39924;SDS011;25592;49.986;11.618;2022-09-13T10:42:55;7.15;;;3.85;;
39924;SDS011;25592;49.986;11.618;2022-09-13T10:45:42;5.13;;;3.70;;
39924;SDS011;25592;49.986;11.618;2022-09-13T10:48:28;6.88;;;3.78;;
39924;SDS011;25592;49.986;11.618;2022-09-13T10:54:24;8.13;;;4.63;;
39924;SDS011;25592;49.986;11.618;2022-09-13T10:57:30;7.03;;;4.03;;
39924;SDS011;25592;49.986;11.618;2022-09-13T11:00:21;6.22;;;3.80;;
39924;SDS011;25592;49.986;11.618;2022-09-13T11:03:24;7.25;;;4.00;;
39924;SDS011;25592;49.986;11.618;2022-09-13T11:06:20;5.03;;;3.53;;
39924;SDS011;25592;49.986;11.618;2022-09-13T11:09:26;4.30;;;3.28;;
39924;SDS011;25592;49.986;11.618;2022-09-13T11:12:30;5.40;;;3.95;;
39924;SDS011;25592;49.986;11.618;2022-09-13T11:18:19;5.35;;;3.58;;
39924;SDS011;25592;49.986;11.618;2022-09-13T11:21:37;6.50;;;3.45;;
39924;SDS011;25592;49.986;11.618;2022-09-13T11:25:00;4.53;;;3.40;;
39924;SDS011;25592;49.986;11.618;2022-09-13T11:28:02;8.15;;;4.20;;
39924;SDS011;25592;49.986;11.618;2022-09-13T11:37:23;6.03;;;3.58;;
39924;SDS011;25592;49.986;11.618;2022-09-13T11:43:32;7.15;;;3.83;;
39924;SDS011;25592;49.986;11.618;2022-09-13T11:49:44;8.15;;;4.30;;
39924;SDS011;25592;49.986;11.618;2022-09-13T11:53:32;7.13;;;4.15;;
39924;SDS011;25592;49.986;11.618;2022-09-13T11:55:55;7.15;;;4.60;;
39924;SDS011;25592;49.986;11.618;2022-09-13T11:58:47;6.50;;;3.70;;
39924;SDS011;25592;49.986;11.618;2022-09-13T12:01:40;6.32;;;3.90;;
39924;SDS011;25592;49.986;11.618;2022-09-13T12:04:36;8.02;;;3.72;;
39924;SDS011;25592;49.986;11.618;2022-09-13T12:07:35;5.25;;;3.75;;
39924;SDS011;25592;49.986;11.618;2022-09-13T12:10:27;5.28;;;3.67;;
39924;SDS011;25592;49.986;11.618;2022-09-13T12:13:36;5.10;;;3.38;;
39924;SDS011;25592;49.986;11.618;2022-09-13T12:17:02;8.00;;;3.63;;
39924;SDS011;25592;49.986;11.618;2022-09-13T12:19:48;5.00;;;3.08;;
39924;SDS011;25592;49.986;11.618;2022-09-13T12:22:38;7.20;;;3.40;;
39924;SDS011;25592;49.986;11.618;2022-09-13T12:25:27;6.65;;;3.53;;
39924;SDS011;25592;49.986;11.618;2022-09-13T12:28:28;5.07;;;3.45;;
39924;SDS011;25592;49.986;11.618;2022-09-13T12:31:21;4.68;;;3.38;;
39924;SDS011;25592;49.986;11.618;2022-09-13T12:34:56;7.75;;;4.13;;
39924;SDS011;25592;49.986;11.618;2022-09-13T12:37:35;4.47;;;2.95;;
39924;SDS011;25592;49.986;11.618;2022-09-13T12:41:03;6.65;;;3.67;;
39924;SDS011;25592;49.986;11.618;2022-09-13T12:44:28;7.03;;;3.63;;
39924;SDS011;25592;49.986;11.618;2022-09-13T12:53:54;4.95;;;3.28;;
39924;SDS011;25592;49.986;11.618;2022-09-13T12:56:57;4.95;;;3.38;;
39924;SDS011;25592;49.986;11.618;2022-09-13T13:00:10;4.72;;;3.78;;
39924;SDS011;25592;49.986;11.618;2022-09-13T13:09:22;5.60;;;3.20;;
39924;SDS011;25592;49.986;11.618;2022-09-13T13:12:33;6.70;;;3.13;;
39924;SDS011;25592;49.986;11.618;2022-09-13T13:18:29;7.45;;;3.00;;
39924;SDS011;25592;49.986;11.618;2022-09-13T13:21:28;5.28;;;2.80;;
39924;SDS011;25592;49.986;11.618;2022-09-13T13:27:00;3.72;;;2.72;;
39924;SDS011;25592;49.986;11.618;2022-09-13T13:33:27;8.30;;;2.50;;
39924;SDS011;25592;49.986;11.618;2022-09-13T13:42:24;4.03;;;1.92;;
39924;SDS011;25592;49.986;11.618;2022-09-13T13:45:22;2.50;;;1.40;;
39924;SDS011;25592;49.986;11.618;2022-09-13T13:48:12;3.45;;;1.50;;
39924;SDS011;25592;49.986;11.618;2022-09-13T13:54:00;5.45;;;2.00;;
39924;SDS011;25592;49.986;11.618;2022-09-13T14:03:13;3.33;;;1.70;;
39924;SDS011;25592;49.986;11.618;2022-09-13T14:06:37;4.13;;;1.80;;
39924;SDS011;25592;49.986;11.618;2022-09-13T14:09:43;2.90;;;1.83;;
39924;SDS011;25592;49.986;11.618;2022-09-13T14:12:47;2.70;;;1.73;;
39924;SDS011;25592;49.986;11.618;2022-09-13T14:16:13;2.85;;;1.88;;
39924;SDS011;25592;49.986;11.618;2022-09-13T14:22:17;3.22;;;1.98;;
39924;SDS011;25592;49.986;11.618;2022-09-13T14:28:02;3.17;;;2.03;;
39924;SDS011;25592;49.986;11.618;2022-09-13T14:30:52;5.00;;;1.90;;
39924;SDS011;25592;49.986;11.618;2022-09-13T14:33:39;3.67;;;1.90;;
39924;SDS011;25592;49.986;11.618;2022-09-13T14:36:24;4.40;;;2.33;;
39924;SDS011;25592;49.986;11.618;2022-09-13T14:39:11;3.65;;;1.63;;
39924;SDS011;25592;49.986;11.618;2022-09-13T14:42:00;3.30;;;1.90;;
39924;SDS011;25592;49.986;11.618;2022-09-13T14:44:55;4.72;;;2.20;;
39924;SDS011;25592;49.986;11.618;2022-09-13T14:47:51;4.35;;;2.38;;
39924;SDS011;25592;49.986;11.618;2022-09-13T14:50:51;3.92;;;1.92;;
39924;SDS011;25592;49.986;11.618;2022-09-13T14:53:42;3.20;;;2.00;;
39924;SDS011;25592;49.986;11.618;2022-09-13T14:56:38;5.90;;;1.77;;
39924;SDS011;25592;49.986;11.618;2022-09-13T14:59:35;4.85;;;2.30;;
39924;SDS011;25592;49.986;11.618;2022-09-13T15:02:30;2.42;;;1.52;;
39924;SDS011;25592;49.986;11.618;2022-09-13T15:05:20;2.80;;;2.00;;
39924;SDS011;25592;49.986;11.618;2022-09-13T15:11:29;4.10;;;2.05;;
39924;SDS011;25592;49.986;11.618;2022-09-13T15:17:18;4.85;;;2.28;;
39924;SDS011;25592;49.986;11.618;2022-09-13T15:20:04;3.05;;;1.70;;
39924;SDS011;25592;49.986;11.618;2022-09-13T15:22:49;3.20;;;1.92;;
39924;SDS011;25592;49.986;11.618;2022-09-13T15:25:37;2.95;;;1.85;;
39924;SDS011;25592;49.986;11.618;2022-09-13T15:28:26;4.20;;;1.85;;
39924;SDS011;25592;49.986;11.618;2022-09-13T15:31:20;4.65;;;2.10;;
39924;SDS011;25592;49.986;11.618;2022-09-13T15:40:14;5.40;;;1.98;;
39924;SDS011;25592;49.986;11.618;2022-09-13T15:43:02;4.90;;;2.13;;
39924;SDS011;25592;49.986;11.618;2022-09-13T15:45:47;3.42;;;1.70;;
39924;SDS011;25592;49.986;11.618;2022-09-13T15:48:34;2.92;;;1.80;;
39924;SDS011;25592;49.986;11.618;2022-09-13T15:51:20;3.03;;;1.50;;
39924;SDS011;25592;49.986;11.618;2022-09-13T15:54:10;3.72;;;1.75;;
39924;SDS011;25592;49.986;11.618;2022-09-13T15:57:00;4.15;;;1.92;;
39924;SDS011;25592;49.986;11.618;2022-09-13T15:59:45;6.57;;;1.98;;
39924;SDS011;25592;49.986;11.618;2022-09-13T16:02:31;2.25;;;1.40;;
39924;SDS011;25592;49.986;11.618;2022-09-13T16:05:19;3.38;;;1.60;;
39924;SDS011;25592;49.986;11.618;2022-09-13T16:08:04;10.65;;;1.92;;
39924;SDS011;25592;49.986;11.618;2022-09-13T16:10:50;3.33;;;2.20;;
39924;SDS011;25592;49.986;11.618;2022-09-13T16:13:35;3.95;;;2.15;;
39924;SDS011;25592;49.986;11.618;2022-09-13T16:16:21;5.03;;;1.75;;
39924;SDS011;25592;49.986;11.618;2022-09-13T16:19:16;3.15;;;1.98;;
39924;SDS011;25592;49.986;11.618;2022-09-13T16:22:03;4.50;;;2.20;;
39924;SDS011;25592;49.986;11.618;2022-09-13T16:24:51;4.28;;;1.92;;
39924;SDS011;25592;49.986;11.618;2022-09-13T16:27:36;4.18;;;2.17;;
39924;SDS011;25592;49.986;11.618;2022-09-13T16:30:22;3.05;;;2.03;;
39924;SDS011;25592;49.986;11.618;2022-09-13T16:33:07;3.40;;;1.90;;
39924;SDS011;25592;49.986;11.618;2022-09-13T16:35:53;5.25;;;1.92;;
39924;SDS011;25592;49.986;11.618;2022-09-13T16:38:42;4.20;;;2.08;;
39924;SDS011;25592;49.986;11.618;2022-09-13T16:41:27;3.47;;;1.88;;
39924;SDS011;25592;49.986;11.618;2022-09-13T16:44:13;3.40;;;2.03;;
39924;SDS011;25592;49.986;11.618;2022-09-13T16:46:58;4.07;;;1.80;;
39924;SDS011;25592;49.986;11.618;2022-09-13T16:49:44;3.47;;;1.80;;
39924;SDS011;25592;49.986;11.618;2022-09-13T16:52:29;3.90;;;2.08;;
39924;SDS011;25592;49.986;11.618;2022-09-13T16:55:14;5.03;;;1.63;;
39924;SDS011;25592;49.986;11.618;2022-09-13T16:58:00;3.13;;;2.00;;
39924;SDS011;25592;49.986;11.618;2022-09-13T17:00:45;3.92;;;2.33;;
39924;SDS011;25592;49.986;11.618;2022-09-13T17:03:31;6.28;;;1.85;;
39924;SDS011;25592;49.986;11.618;2022-09-13T17:06:17;3.78;;;2.30;;
39924;SDS011;25592;49.986;11.618;2022-09-13T17:09:05;6.50;;;2.50;;
39924;SDS011;25592;49.986;11.618;2022-09-13T17:11:50;3.08;;;1.98;;
39924;SDS011;25592;49.986;11.618;2022-09-13T17:14:36;5.25;;;2.50;;
39924;SDS011;25592;49.986;11.618;2022-09-13T17:17:23;6.03;;;2.00;;
39924;SDS011;25592;49.986;11.618;2022-09-13T17:20:09;4.82;;;2.08;;
39924;SDS011;25592;49.986;11.618;2022-09-13T17:22:55;3.70;;;2.22;;
39924;SDS011;25592;49.986;11.618;2022-09-13T17:25:45;5.88;;;2.17;;
39924;SDS011;25592;49.986;11.618;2022-09-13T17:28:31;3.47;;;2.15;;
39924;SDS011;25592;49.986;11.618;2022-09-13T17:31:18;4.72;;;2.00;;
39924;SDS011;25592;49.986;11.618;2022-09-13T17:34:04;3.97;;;2.35;;
39924;SDS011;25592;49.986;11.618;2022-09-13T17:36:49;3.30;;;1.98;;
39924;SDS011;25592;49.986;11.618;2022-09-13T17:39:35;5.63;;;2.33;;
39924;SDS011;25592;49.986;11.618;2022-09-13T17:42:21;4.10;;;2.63;;
39924;SDS011;25592;49.986;11.618;2022-09-13T17:45:07;4.35;;;2.10;;
39924;SDS011;25592;49.986;11.618;2022-09-13T17:47:53;6.10;;;2.08;;
39924;SDS011;25592;49.986;11.618;2022-09-13T17:50:40;4.68;;;1.90;;
39924;SDS011;25592;49.986;11.618;2022-09-13T17:53:25;11.00;;;2.10;;
39924;SDS011;25592;49.986;11.618;2022-09-13T17:56:11;4.07;;;2.10;;
39924;SDS011;25592;49.986;11.618;2022-09-13T17:59:03;3.63;;;2.22;;
39924;SDS011;25592;49.986;11.618;2022-09-13T18:01:54;6.30;;;2.03;;
39924;SDS011;25592;49.986;11.618;2022-09-13T18:04:41;5.53;;;2.40;;
39924;SDS011;25592;49.986;11.618;2022-09-13T18:07:27;7.80;;;2.13;;
39924;SDS011;25592;49.986;11.618;2022-09-13T18:10:12;6.72;;;2.10;;
39924;SDS011;25592;49.986;11.618;2022-09-13T18:13:17;4.82;;;1.90;;
39924;SDS011;25592;49.986;11.618;2022-09-13T18:16:04;3.67;;;2.30;;
39924;SDS011;25592;49.986;11.618;2022-09-13T18:18:54;4.38;;;1.85;;
39924;SDS011;25592;49.986;11.618;2022-09-13T18:21:40;4.28;;;1.80;;
39924;SDS011;25592;49.986;11.618;2022-09-13T18:24:25;3.95;;;2.22;;
39924;SDS011;25592;49.986;11.618;2022-09-13T18:27:10;9.18;;;2.45;;
39924;SDS011;25592;49.986;11.618;2022-09-13T18:29:56;3.45;;;2.10;;
39924;SDS011;25592;49.986;11.618;2022-09-13T18:32:41;4.03;;;2.20;;
39924;SDS011;25592;49.986;11.618;2022-09-13T18:35:26;4.88;;;2.20;;
39924;SDS011;25592;49.986;11.618;2022-09-13T18:38:12;4.30;;;2.00;;
39924;SDS011;25592;49.986;11.618;2022-09-13T18:41:01;3.55;;;2.05;;
39924;SDS011;25592;49.986;11.618;2022-09-13T18:43:50;3.70;;;2.15;;
39924;SDS011;25592;49.986;11.618;2022-09-13T18:46:40;5.43;;;2.05;;
39924;SDS011;25592;49.986;11.618;2022-09-13T18:49:26;4.00;;;2.20;;
39924;SDS011;25592;49.986;11.618;2022-09-13T18:52:11;3.58;;;2.10;;
39924;SDS011;25592;49.986;11.618;2022-09-13T18:54:57;3.15;;;1.83;;
39924;SDS011;25592;49.986;11.618;2022-09-13T18:57:42;5.47;;;1.80;;
39924;SDS011;25592;49.986;11.618;2022-09-13T19:00:28;3.47;;;2.17;;
39924;SDS011;25592;49.986;11.618;2022-09-13T19:03:13;5.43;;;2.60;;